createdAt,value
2023-03-26T00:00:54.085Z,216.34
2023-03-26T00:01:54.280Z,217.24
2023-03-26T00:02:54.224Z,217.63
2023-03-26T00:03:54.280Z,217.02
2023-03-26T00:04:54.329Z,209.65
2023-03-26T00:05:54.540Z,198.81
2023-03-26T00:06:54.400Z,194.13
2023-03-26T00:07:54.453Z,190.66
2023-03-26T00:20:54.450Z,186.16
2023-03-26T00:22:54.480Z,189.17
2023-03-26T00:23:54.482Z,191.71
2023-03-26T00:24:54.489Z,193.51
2023-03-26T00:25:54.718Z,195.70
2023-03-26T00:26:54.548Z,196.81
2023-03-26T00:27:54.596Z,198.02
2023-03-26T00:28:54.754Z,198.42
2023-03-26T00:29:54.686Z,200.39
2023-03-26T00:30:54.712Z,200.82
2023-03-26T00:31:54.761Z,201.14
2023-03-26T00:32:54.784Z,202.09
2023-03-26T00:33:54.817Z,203.55
2023-03-26T00:34:54.877Z,202.78
2023-03-26T00:35:55.131Z,204.79
2023-03-26T00:36:55.015Z,204.24
2023-03-26T00:37:55.034Z,206.49
2023-03-26T00:38:55.079Z,202.13
2023-03-26T00:39:55.123Z,199.85
2023-03-26T00:40:56.116Z,199.88
2023-03-26T00:54:55.453Z,211.60
2023-03-26T00:55:55.560Z,212.87
2023-03-26T00:56:55.583Z,213.37
2023-03-26T00:57:55.641Z,213.20
2023-03-26T00:58:55.743Z,214.49
2023-03-26T00:59:55.774Z,215.27
2023-03-26T01:00:55.827Z,216.88
2023-03-26T01:01:55.933Z,216.07
2023-03-26T01:02:56.048Z,216.20
2023-03-26T01:04:07.420Z,215.67
2023-03-26T01:04:56.995Z,215.70
2023-03-26T01:05:56.230Z,215.78
2023-03-26T01:09:55.933Z,216.94
2023-03-26T01:12:55.932Z,219.45
2023-03-26T01:13:56.054Z,219.42
2023-03-26T01:14:56.048Z,218.32
2023-03-26T01:15:56.405Z,218.95
2023-03-26T01:16:56.168Z,219.89
2023-03-26T01:17:56.235Z,218.25
2023-03-26T01:18:56.282Z,218.49
2023-03-26T01:19:56.354Z,219.04
2023-03-26T01:20:56.412Z,217.82
2023-03-26T01:21:56.496Z,218.71
2023-03-26T01:22:56.509Z,219.03
2023-03-26T01:23:56.557Z,219.60
2023-03-26T01:24:56.943Z,220.19
2023-03-26T01:25:56.842Z,219.06
2023-03-26T01:26:56.744Z,218.61
2023-03-26T01:27:56.797Z,220.14
2023-03-26T01:28:56.863Z,221.79
2023-03-26T01:29:56.903Z,220.94
2023-03-26T01:30:56.993Z,219.06
2023-03-26T01:31:57.034Z,218.08
2023-03-26T01:32:57.173Z,218.27
2023-03-26T01:33:57.166Z,219.84
2023-03-26T01:34:57.225Z,219.50
2023-03-26T01:35:57.465Z,222.00
2023-03-26T01:36:57.340Z,223.51
2023-03-26T01:37:57.404Z,223.05
2023-03-26T01:38:58.917Z,223.00
2023-03-26T01:39:57.509Z,224.02
2023-03-26T01:40:57.575Z,219.47
2023-03-26T01:41:57.643Z,219.64
2023-03-26T01:42:57.722Z,218.70
2023-03-26T01:43:57.759Z,218.09
2023-03-26T01:44:57.846Z,218.29
2023-03-26T01:45:57.880Z,218.48
2023-03-26T01:46:57.937Z,220.41
2023-03-26T01:47:58.028Z,219.46
2023-03-26T01:48:58.028Z,220.06
2023-03-26T01:49:58.093Z,221.08
2023-03-26T01:50:58.142Z,221.85
2023-03-26T01:51:58.208Z,222.43
2023-03-26T01:52:58.271Z,220.73
2023-03-26T01:53:58.372Z,220.80
2023-03-26T01:54:58.375Z,221.61
2023-03-26T01:55:58.458Z,219.50
2023-03-26T01:56:58.551Z,212.40
2023-03-26T01:57:58.552Z,213.35
2023-03-26T01:58:58.620Z,213.49
2023-03-26T01:59:58.642Z,215.16
2023-03-26T02:00:58.684Z,216.47
2023-03-26T02:01:58.822Z,217.60
2023-03-26T02:02:58.889Z,219.18
2023-03-26T02:03:58.856Z,220.77
2023-03-26T02:04:58.914Z,221.53
2023-03-26T02:05:58.995Z,222.95
2023-03-26T02:06:59.043Z,223.62
2023-03-26T02:07:59.149Z,224.00
2023-03-26T02:08:59.174Z,224.00
2023-03-26T02:09:59.244Z,223.76
2023-03-26T02:10:59.296Z,224.12
2023-03-26T02:11:59.334Z,224.27
2023-03-26T02:12:59.407Z,222.70
2023-03-26T02:13:59.495Z,222.31
2023-03-26T02:14:59.510Z,221.80
2023-03-26T02:15:59.645Z,223.41
2023-03-26T02:16:59.634Z,223.55
2023-03-26T02:17:59.702Z,223.48
2023-03-26T02:18:59.749Z,224.59
2023-03-26T02:19:59.837Z,224.92
2023-03-26T02:20:59.869Z,225.10
2023-03-26T02:22:00.013Z,226.54
2023-03-26T02:22:59.981Z,227.93
2023-03-26T02:24:00.044Z,226.55
2023-03-26T02:25:00.115Z,226.02
2023-03-26T02:26:00.187Z,226.83
2023-03-26T02:27:00.226Z,228.85
2023-03-26T02:28:00.301Z,229.21
2023-03-26T02:29:00.365Z,228.15
2023-03-26T02:30:00.454Z,228.75
2023-03-26T02:31:00.468Z,228.29
2023-03-26T02:32:00.583Z,228.12
2023-03-26T02:33:00.574Z,229.23
2023-03-26T02:34:00.650Z,228.98
2023-03-26T02:35:00.704Z,228.96
2023-03-26T02:36:00.824Z,227.39
2023-03-26T02:37:00.808Z,226.50
2023-03-26T02:38:00.896Z,226.16
2023-03-26T02:39:00.978Z,227.02
2023-03-26T02:40:00.982Z,227.11
2023-03-26T02:41:01.070Z,227.29
2023-03-26T02:42:01.113Z,227.30
2023-03-26T02:43:01.222Z,226.70
2023-03-26T03:05:02.457Z,235.60
2023-03-26T03:06:02.550Z,236.39
2023-03-26T03:07:02.588Z,237.26
2023-03-26T03:08:02.658Z,237.22
2023-03-26T03:09:02.754Z,237.37
2023-03-26T03:10:02.777Z,237.87
2023-03-26T03:11:02.846Z,237.89
2023-03-26T03:12:02.878Z,239.76
2023-03-26T03:13:02.956Z,239.63
2023-03-26T03:14:02.992Z,240.30
2023-03-26T03:15:03.066Z,240.54
2023-03-26T03:16:03.138Z,240.84
2023-03-26T03:17:03.274Z,242.24
2023-03-26T03:18:03.292Z,241.79
2023-03-26T03:19:03.307Z,242.57
2023-03-26T03:20:03.362Z,243.82
2023-03-26T03:21:03.442Z,243.56
2023-03-26T03:22:03.482Z,243.74
2023-03-26T03:23:03.516Z,245.43
2023-03-26T03:24:03.575Z,245.54
2023-03-26T03:25:03.611Z,245.82
2023-03-26T03:26:03.671Z,246.51
2023-03-26T03:27:03.708Z,246.57
2023-03-26T03:28:03.782Z,247.16
2023-03-26T03:29:03.833Z,247.38
2023-03-26T03:30:03.867Z,248.22
2023-03-26T03:31:04.098Z,248.63
2023-03-26T03:32:04.020Z,248.69
2023-03-26T03:33:04.148Z,249.16
2023-03-26T03:34:04.102Z,249.78
2023-03-26T03:35:04.183Z,249.84
2023-03-26T03:36:04.313Z,249.62
2023-03-26T03:37:04.324Z,249.97
2023-03-26T03:38:04.380Z,249.29
2023-03-26T03:39:04.478Z,249.26
2023-03-26T03:40:04.482Z,249.56
2023-03-26T03:41:04.598Z,249.54
2023-03-26T03:42:04.637Z,249.68
2023-03-26T03:43:04.665Z,249.86
2023-03-26T03:44:04.757Z,249.21
2023-03-26T03:45:04.783Z,249.68
2023-03-26T03:46:04.894Z,249.48
2023-03-26T03:47:04.952Z,249.74
2023-03-26T03:48:05.059Z,249.73
2023-03-26T03:49:05.056Z,250.00
2023-03-26T03:50:05.114Z,249.58
2023-03-26T03:51:05.173Z,249.50
2023-03-26T03:52:05.234Z,248.81
2023-03-26T03:53:05.285Z,249.07
2023-03-26T03:54:05.338Z,249.04
2023-03-26T03:55:05.406Z,248.55
2023-03-26T03:56:05.458Z,249.30
2023-03-26T03:57:05.618Z,250.00
2023-03-26T03:58:05.604Z,249.79
2023-03-26T03:59:05.636Z,249.17
2023-03-26T04:00:06.877Z,249.74
2023-03-26T04:01:05.788Z,249.78
2023-03-26T04:02:05.790Z,249.92
2023-03-26T04:03:05.943Z,249.62
2023-03-26T04:04:06.032Z,249.51
2023-03-26T04:05:05.985Z,249.34
2023-03-26T04:06:06.049Z,249.72
2023-03-26T04:07:06.101Z,249.45
2023-03-26T04:08:06.156Z,249.55
2023-03-26T04:09:06.204Z,250.00
2023-03-26T04:10:06.268Z,249.97
2023-03-26T04:11:06.280Z,249.89
2023-03-26T04:12:06.357Z,249.73
2023-03-26T04:13:06.447Z,249.83
2023-03-26T04:14:06.502Z,250.00
2023-03-26T04:15:06.571Z,249.49
2023-03-26T04:16:06.589Z,249.75
2023-03-26T04:17:06.628Z,249.66
2023-03-26T04:18:06.686Z,249.16
2023-03-26T04:19:06.734Z,249.63
2023-03-26T04:20:06.801Z,249.06
2023-03-26T04:21:06.851Z,248.93
2023-03-26T04:22:06.926Z,249.28
2023-03-26T04:23:06.956Z,249.16
2023-03-26T04:24:07.029Z,248.28
2023-03-26T04:25:07.049Z,247.91
2023-03-26T04:26:07.101Z,248.69
2023-03-26T04:27:07.206Z,249.32
2023-03-26T04:28:07.206Z,249.52
2023-03-26T04:29:07.288Z,249.42
2023-03-26T04:30:07.327Z,249.15
2023-03-26T04:31:07.407Z,248.30
2023-03-26T04:32:07.460Z,247.63
2023-03-26T04:33:07.602Z,247.58
2023-03-26T04:34:07.576Z,247.34
2023-03-26T04:35:07.615Z,247.23
2023-03-26T04:36:07.743Z,247.46
2023-03-26T04:37:07.738Z,248.11
2023-03-26T04:38:07.789Z,246.94
2023-03-26T04:39:07.896Z,246.24
2023-03-26T04:40:07.910Z,243.72
2023-03-26T04:41:07.979Z,243.88
2023-03-26T04:42:08.021Z,244.33
2023-03-26T04:43:08.087Z,243.75
2023-03-26T04:44:08.157Z,243.62
2023-03-26T04:45:08.232Z,244.88
2023-03-26T04:46:08.281Z,244.07
2023-03-26T04:47:08.356Z,243.97
2023-03-26T04:48:08.386Z,245.15
2023-03-26T04:49:08.480Z,245.56
2023-03-26T04:50:08.521Z,245.50
2023-03-26T04:51:08.590Z,245.86
2023-03-26T04:52:08.623Z,245.97
2023-03-26T04:53:08.661Z,246.45
2023-03-26T04:54:08.746Z,245.27
2023-03-26T04:55:08.793Z,245.77
2023-03-26T04:56:08.795Z,245.83
2023-03-26T04:57:08.916Z,246.50
2023-03-26T04:58:08.948Z,246.80
2023-03-26T04:59:09.007Z,246.83
2023-03-26T05:00:09.053Z,246.94
2023-03-26T05:01:10.330Z,248.09
2023-03-26T05:02:09.162Z,247.85
2023-03-26T05:03:09.269Z,247.34
2023-03-26T05:04:09.345Z,246.67
2023-03-26T05:05:09.316Z,246.08
2023-03-26T05:06:09.388Z,243.79
2023-03-26T05:07:09.456Z,244.03
2023-03-26T05:08:09.524Z,244.32
2023-03-26T05:09:09.607Z,242.15
2023-03-26T05:10:09.642Z,241.93
2023-03-26T05:11:09.716Z,241.06
2023-03-26T05:12:09.754Z,241.64
2023-03-26T05:13:09.839Z,242.18
2023-03-26T05:14:09.862Z,242.48
2023-03-26T05:15:09.913Z,243.03
2023-03-26T05:16:10.045Z,245.18
2023-03-26T05:17:10.058Z,244.12
2023-03-26T05:18:10.150Z,244.03
2023-03-26T05:19:10.170Z,244.66
2023-03-26T05:20:10.229Z,244.47
2023-03-26T05:21:10.278Z,244.51
2023-03-26T05:22:10.343Z,245.11
2023-03-26T05:23:10.399Z,246.09
2023-03-26T05:24:10.501Z,245.88
2023-03-26T05:25:10.516Z,245.59
2023-03-26T05:26:10.579Z,246.12
2023-03-26T05:27:10.680Z,247.27
2023-03-26T05:28:10.700Z,247.52
2023-03-26T05:29:10.798Z,247.69
2023-03-26T05:30:10.840Z,247.61
2023-03-26T05:31:10.901Z,248.18
2023-03-26T05:32:10.979Z,248.56
2023-03-26T05:33:11.093Z,248.70
2023-03-26T05:34:11.056Z,249.44
2023-03-26T05:35:11.106Z,249.42
2023-03-26T05:36:11.185Z,249.54
2023-03-26T05:37:11.243Z,249.16
2023-03-26T05:38:11.300Z,249.34
2023-03-26T05:39:11.397Z,249.58
2023-03-26T05:40:11.491Z,249.46
2023-03-26T05:41:11.517Z,249.40
2023-03-26T05:59:12.519Z,249.03
2023-03-26T06:00:12.545Z,248.40
2023-03-26T06:01:12.632Z,248.35
2023-03-26T06:02:12.680Z,248.82
2023-03-26T06:03:13.186Z,249.28
2023-03-26T06:04:12.952Z,248.77
2023-03-26T06:05:12.842Z,248.81
2023-03-26T06:06:12.906Z,249.63
2023-03-26T06:07:12.965Z,249.40
2023-03-26T06:08:13.067Z,248.94
2023-03-26T06:09:13.085Z,248.85
2023-03-26T06:10:18.416Z,249.40
2023-03-26T06:11:14.092Z,249.44
2023-03-26T06:13:13.083Z,249.26
2023-03-26T06:17:13.064Z,249.53
2023-03-26T06:21:13.157Z,249.39
2023-03-26T06:22:13.214Z,248.73
2023-03-26T06:23:13.252Z,249.02
2023-03-26T06:24:13.268Z,248.56
2023-03-26T06:25:13.344Z,248.91
2023-03-26T06:26:13.387Z,247.77
2023-03-26T06:27:13.490Z,246.98
2023-03-26T06:28:13.506Z,247.69
2023-03-26T06:29:13.542Z,247.40
2023-03-26T06:30:13.597Z,246.91
2023-03-26T06:31:13.719Z,246.55
2023-03-26T06:32:19.595Z,245.56
2023-03-26T06:33:14.750Z,245.56
2023-03-26T06:34:13.690Z,244.13
2023-03-26T06:42:13.694Z,242.15
2023-03-26T06:43:13.713Z,242.11
2023-03-26T06:44:13.803Z,242.45
2023-03-26T06:45:13.836Z,242.94
2023-03-26T06:46:13.909Z,242.83
2023-03-26T06:47:13.957Z,242.60
2023-03-26T06:48:13.975Z,243.98
2023-03-26T06:49:14.044Z,243.10
2023-03-26T06:50:14.083Z,242.63
2023-03-26T06:51:14.102Z,242.45
2023-03-26T06:52:14.186Z,242.29
2023-03-26T06:53:14.238Z,242.30
2023-03-26T06:54:14.308Z,242.57
2023-03-26T06:55:14.313Z,242.41
2023-03-26T06:56:14.364Z,241.77
2023-03-26T06:57:14.438Z,241.37
2023-03-26T06:58:14.529Z,239.74
2023-03-26T06:59:14.521Z,240.08
2023-03-26T07:00:14.583Z,241.02
2023-03-26T07:01:14.655Z,241.20
2023-03-26T07:02:14.677Z,240.60
2023-03-26T07:03:14.701Z,240.80
2023-03-26T07:04:14.810Z,241.41
2023-03-26T07:05:14.849Z,242.26
2023-03-26T07:06:14.886Z,242.76
2023-03-26T07:07:14.926Z,241.65
2023-03-26T07:08:14.979Z,240.08
2023-03-26T07:09:15.010Z,240.96
2023-03-26T07:10:15.074Z,241.73
2023-03-26T07:11:15.115Z,241.70
2023-03-26T07:12:15.192Z,241.81
2023-03-26T07:13:15.243Z,240.31
2023-03-26T07:14:15.309Z,239.86
2023-03-26T07:15:15.384Z,240.56
2023-03-26T07:16:15.483Z,240.53
2023-03-26T07:17:15.520Z,240.45
2023-03-26T07:18:15.611Z,239.78
2023-03-26T07:19:15.636Z,239.97
2023-03-26T07:20:15.665Z,238.98
2023-03-26T07:21:15.771Z,239.04
2023-03-26T07:22:15.837Z,238.27
2023-03-26T07:23:15.886Z,237.46
2023-03-26T07:24:15.948Z,238.38
2023-03-26T07:25:16.011Z,238.40
2023-03-26T07:26:16.089Z,238.31
2023-03-26T07:27:16.123Z,238.48
2023-03-26T07:28:16.188Z,238.92
2023-03-26T07:29:16.261Z,240.09
2023-03-26T07:30:16.320Z,239.96
2023-03-26T07:31:16.445Z,239.82
2023-03-26T07:32:18.919Z,238.62
2023-03-26T07:33:16.431Z,238.59
2023-03-26T07:34:16.445Z,239.43
2023-03-26T07:41:16.641Z,238.47
2023-03-26T07:49:16.358Z,237.65
2023-03-26T07:55:16.259Z,236.65
2023-03-26T07:56:16.316Z,236.50
2023-03-26T07:59:16.263Z,236.45
2023-03-26T08:01:16.222Z,234.30
2023-03-26T08:02:16.223Z,234.20
2023-03-26T08:03:16.323Z,233.65
2023-03-26T08:04:24.659Z,233.24
2023-03-26T08:05:17.256Z,233.29
2023-03-26T08:06:16.237Z,233.34
2023-03-26T08:13:16.145Z,232.63
2023-03-26T08:14:16.174Z,232.98
2023-03-26T08:15:16.265Z,233.65
2023-03-26T08:16:16.322Z,234.73
2023-03-26T08:17:16.370Z,234.97
2023-03-26T08:18:16.414Z,236.01
2023-03-26T08:19:16.505Z,233.88
2023-03-26T08:20:16.562Z,232.82
2023-03-26T08:21:16.587Z,233.35
2023-03-26T08:22:16.661Z,233.10
2023-03-26T08:23:16.702Z,231.27
2023-03-26T08:24:16.758Z,229.27
2023-03-26T08:25:16.821Z,228.26
2023-03-26T08:26:16.880Z,228.13
2023-03-26T08:27:16.960Z,230.19
2023-03-26T08:28:17.033Z,231.73
2023-03-26T08:29:17.078Z,232.33
2023-03-26T08:30:17.118Z,232.68
2023-03-26T08:31:17.208Z,232.13
2023-03-26T08:32:17.222Z,232.13
2023-03-26T08:33:17.306Z,232.03
2023-03-26T08:34:17.341Z,232.93
2023-03-26T08:35:17.454Z,231.87
2023-03-26T08:36:17.472Z,227.57
2023-03-26T08:37:17.507Z,224.94
2023-03-26T08:38:17.539Z,227.40
2023-03-26T08:39:17.627Z,228.24
2023-03-26T08:40:17.715Z,226.13
2023-03-26T08:41:17.725Z,226.55
2023-03-26T08:42:17.779Z,227.86
2023-03-26T08:43:17.864Z,226.04
2023-03-26T08:44:17.886Z,223.89
2023-03-26T08:45:17.976Z,222.95
2023-03-26T08:46:18.124Z,220.18
2023-03-26T08:47:18.048Z,216.40
2023-03-26T08:48:18.105Z,213.11
2023-03-26T08:49:18.205Z,207.51
2023-03-26T08:50:18.268Z,199.22
2023-03-26T08:51:18.293Z,199.56
2023-03-26T08:52:18.378Z,199.15
2023-03-26T08:53:18.563Z,202.67
2023-03-26T08:54:18.496Z,203.42
2023-03-26T08:55:18.558Z,206.84
2023-03-26T08:56:18.617Z,209.09
2023-03-26T08:57:18.710Z,212.53
2023-03-26T08:58:18.806Z,215.94
2023-03-26T08:59:18.834Z,217.06
2023-03-26T09:00:18.866Z,215.42
2023-03-26T09:01:18.955Z,217.77
2023-03-26T09:02:18.981Z,217.79
2023-03-26T09:03:19.051Z,213.05
2023-03-26T09:04:19.167Z,217.09
2023-03-26T09:05:19.160Z,216.93
2023-03-26T09:06:19.219Z,217.55
2023-03-26T09:07:19.292Z,217.55
2023-03-26T09:08:19.358Z,219.53
2023-03-26T09:09:19.599Z,218.65
2023-03-26T09:10:19.466Z,218.02
2023-03-26T09:11:19.520Z,216.31
2023-03-26T09:12:19.602Z,218.11
2023-03-26T09:13:19.623Z,221.22
2023-03-26T09:14:19.691Z,221.59
2023-03-26T09:15:19.715Z,219.96
2023-03-26T09:16:19.833Z,218.33
2023-03-26T09:17:19.853Z,190.55
2023-03-26T09:18:19.957Z,181.28
2023-03-26T09:19:19.974Z,174.19
2023-03-26T09:20:20.004Z,167.19
2023-03-26T09:21:20.053Z,159.00
2023-03-26T09:22:20.161Z,154.00
2023-03-26T09:23:20.209Z,153.93
2023-03-26T09:24:20.265Z,156.71
2023-03-26T09:25:20.281Z,150.48
2023-03-26T09:26:20.351Z,138.37
2023-03-26T09:27:20.370Z,136.81
2023-03-26T09:28:20.374Z,133.27
2023-03-26T09:29:20.418Z,128.08
2023-03-26T09:30:20.426Z,121.26
2023-03-26T09:31:20.549Z,118.66
2023-03-26T09:35:20.406Z,117.51
2023-03-26T09:36:20.417Z,121.94
2023-03-26T09:37:20.486Z,125.28
2023-03-26T09:38:20.533Z,125.19
2023-03-26T09:39:20.551Z,127.33
2023-03-26T09:40:20.624Z,129.60
2023-03-26T09:41:20.676Z,132.96
2023-03-26T09:42:20.735Z,126.51
2023-03-26T09:43:20.731Z,118.57
2023-03-26T09:44:20.806Z,117.75
2023-03-26T09:45:20.814Z,115.76
2023-03-26T09:46:20.832Z,115.04
2023-03-26T09:47:20.872Z,113.23
2023-03-26T09:48:20.762Z,116.88
2023-03-26T09:49:20.839Z,112.38
2023-03-26T09:53:20.865Z,113.62
2023-03-26T09:54:20.880Z,112.99
2023-03-26T10:01:20.895Z,96.53
2023-03-26T10:02:20.846Z,94.18
2023-03-26T10:06:20.838Z,93.55
2023-03-26T10:07:20.843Z,90.64
2023-03-26T10:08:20.866Z,94.65
2023-03-26T10:09:20.852Z,99.31
2023-03-26T10:15:21.154Z,97.23
2023-03-26T10:16:20.832Z,99.15
2023-03-26T10:17:20.828Z,97.83
2023-03-26T10:18:27.445Z,97.62
2023-03-26T10:19:21.842Z,97.68
2023-03-26T10:21:22.809Z,98.75
2023-03-26T10:23:20.814Z,98.58
2023-03-26T10:28:20.742Z,108.84
2023-03-26T10:29:20.762Z,107.34
2023-03-26T10:31:20.805Z,102.30
2023-03-26T10:32:20.744Z,101.81
2023-03-26T10:33:20.720Z,102.26
2023-03-26T10:34:29.200Z,106.95
2023-03-26T10:35:21.762Z,107.04
2023-03-26T10:39:36.251Z,111.78
2023-03-26T10:40:21.707Z,107.28
2023-03-26T10:41:20.652Z,108.82
2023-03-26T10:42:20.655Z,110.35
2023-03-26T10:43:20.687Z,112.42
2023-03-26T10:44:20.654Z,118.68
2023-03-26T10:45:20.643Z,121.43
2023-03-26T10:55:20.896Z,145.65
2023-03-26T10:56:20.935Z,149.95
2023-03-26T10:57:21.018Z,154.64
2023-03-26T10:58:21.066Z,159.78
2023-03-26T10:59:21.127Z,149.00
2023-03-26T11:00:21.179Z,136.29
2023-03-26T11:01:21.283Z,130.78
2023-03-26T11:05:21.336Z,115.98
2023-03-26T11:06:21.293Z,110.07
2023-03-26T11:09:21.281Z,98.57
2023-03-26T11:10:21.304Z,95.36
2023-03-26T11:11:21.317Z,92.95
2023-03-26T11:12:27.325Z,94.30
2023-03-26T11:13:22.321Z,91.51
2023-03-26T11:21:21.259Z,99.18
2023-03-26T11:23:21.254Z,108.74
2023-03-26T11:26:21.201Z,122.25
2023-03-26T11:29:32.467Z,137.70
2023-03-26T11:30:22.252Z,137.87
2023-03-26T11:34:21.176Z,149.89
2023-03-26T11:36:21.151Z,159.65
2023-03-26T11:37:21.143Z,164.54
2023-03-26T11:38:21.234Z,171.20
2023-03-26T11:39:21.226Z,174.64
2023-03-26T11:40:21.294Z,178.34
2023-03-26T11:41:22.823Z,180.63
2023-03-26T11:42:21.372Z,183.62
2023-03-26T11:43:21.381Z,184.93
2023-03-26T11:44:21.478Z,186.24
2023-03-26T11:45:21.526Z,190.24
2023-03-26T11:46:21.643Z,190.78
2023-03-26T11:47:21.675Z,189.02
2023-03-26T11:48:21.682Z,190.93
2023-03-26T11:49:21.736Z,191.90
2023-03-26T11:50:21.815Z,192.50
2023-03-26T11:51:21.862Z,198.43
2023-03-26T11:52:21.881Z,198.40
2023-03-26T11:53:21.966Z,199.52
2023-03-26T11:54:21.999Z,203.05
2023-03-26T11:55:22.064Z,203.10
2023-03-26T11:56:22.141Z,202.72
2023-03-26T11:57:22.240Z,206.63
2023-03-26T11:58:22.282Z,206.16
2023-03-26T11:59:22.312Z,209.07
2023-03-26T12:00:22.376Z,210.53
2023-03-26T12:01:22.455Z,214.61
2023-03-26T12:02:22.601Z,213.15
2023-03-26T12:03:22.596Z,211.03
2023-03-26T12:04:22.686Z,216.87
2023-03-26T12:05:22.680Z,214.78
2023-03-26T12:06:22.771Z,213.18
2023-03-26T12:07:22.836Z,209.90
2023-03-26T12:08:22.901Z,181.85
2023-03-26T12:09:22.928Z,169.51
2023-03-26T12:10:22.974Z,165.89
2023-03-26T12:11:23.040Z,162.40
2023-03-26T12:12:23.094Z,164.02
2023-03-26T12:13:23.113Z,166.00
2023-03-26T12:14:23.184Z,157.18
2023-03-26T12:15:23.273Z,152.03
2023-03-26T12:16:23.377Z,148.36
2023-03-26T12:17:31.394Z,152.76
2023-03-26T12:18:24.363Z,152.88
2023-03-26T12:20:23.330Z,155.61
2023-03-26T12:21:23.317Z,157.05
2023-03-26T12:26:23.289Z,150.83
2023-03-26T12:27:23.373Z,151.54
2023-03-26T12:28:23.397Z,155.57
2023-03-26T12:29:23.474Z,160.72
2023-03-26T12:30:23.558Z,165.34
2023-03-26T12:31:23.607Z,171.04
2023-03-26T12:32:29.646Z,176.55
2023-03-26T12:33:24.741Z,176.68
2023-03-26T12:40:08.795Z,188.27
2023-03-26T12:40:24.639Z,179.32
2023-03-26T12:44:41.818Z,147.98
2023-03-26T12:44:43.455Z,163.20
2023-03-26T12:44:47.303Z,144.02
2023-03-26T12:45:24.664Z,143.82
2023-03-26T12:48:23.594Z,132.16
2023-03-26T12:49:23.627Z,127.07
2023-03-26T12:50:34.199Z,122.28
2023-03-26T12:51:24.547Z,114.84
2023-03-26T12:59:23.497Z,114.63
2023-03-26T13:01:23.530Z,114.16
2023-03-26T13:04:23.423Z,99.36
2023-03-26T13:05:23.494Z,92.12
2023-03-26T13:07:23.431Z,86.56
2023-03-26T13:12:23.411Z,69.58
2023-03-26T13:13:23.423Z,64.70
2023-03-26T13:18:23.388Z,24.81
2023-03-26T13:19:23.353Z,24.26
2023-03-26T13:23:23.504Z,25.00
2023-03-26T13:24:23.561Z,30.69
2023-03-26T13:25:23.636Z,27.94
2023-03-26T13:26:23.682Z,28.17
2023-03-26T13:27:23.759Z,29.55
2023-03-26T13:28:23.814Z,29.80
2023-03-26T13:29:23.836Z,32.89
2023-03-26T13:30:23.891Z,37.15
2023-03-26T13:31:23.932Z,36.42
2023-03-26T13:32:24.051Z,35.63
2023-03-26T13:33:24.001Z,38.90
2023-03-26T13:34:24.047Z,42.03
2023-03-26T13:35:24.116Z,45.45
2023-03-26T13:36:24.985Z,43.43
2023-03-26T13:37:24.181Z,45.01
2023-03-26T13:38:24.201Z,48.24
2023-03-26T13:39:24.262Z,50.13
2023-03-26T13:40:24.298Z,51.58
2023-03-26T13:41:24.364Z,55.92
2023-03-26T13:45:24.457Z,80.23
2023-03-26T13:46:24.537Z,86.57
2023-03-26T13:47:24.516Z,90.09
2023-03-26T13:48:24.620Z,92.82
2023-03-26T13:49:24.643Z,98.27
2023-03-26T13:55:24.627Z,113.78
2023-03-26T13:56:24.624Z,118.34
2023-03-26T13:57:24.613Z,120.86
2023-03-26T14:01:24.676Z,136.85
2023-03-26T14:02:24.637Z,140.02
2023-03-26T14:10:24.572Z,174.19
2023-03-26T14:11:24.568Z,178.52
2023-03-26T14:12:24.570Z,177.86
2023-03-26T14:13:24.593Z,181.00
2023-03-26T14:20:24.651Z,164.07
2023-03-26T14:21:24.717Z,163.53
2023-03-26T14:22:24.722Z,169.71
2023-03-26T14:27:24.739Z,163.53
2023-03-26T14:34:24.712Z,174.35
2023-03-26T14:39:24.718Z,184.55
2023-03-26T14:40:24.728Z,182.89
2023-03-26T14:41:24.762Z,181.15
2023-03-26T14:42:24.751Z,184.38
2023-03-26T14:43:24.760Z,185.57
2023-03-26T14:49:24.771Z,197.80
2023-03-26T14:50:24.832Z,197.21
2023-03-26T14:51:24.833Z,201.04
2023-03-26T14:52:24.862Z,199.46
2023-03-26T14:53:24.852Z,198.81
2023-03-26T14:54:24.889Z,200.30
2023-03-26T14:55:24.911Z,204.60
2023-03-26T14:56:24.945Z,205.51
2023-03-26T14:57:24.981Z,206.57
2023-03-26T14:58:25.032Z,207.04
2023-03-26T14:59:25.099Z,212.11
2023-03-26T15:00:25.094Z,212.59
2023-03-26T15:01:25.203Z,214.53
2023-03-26T15:02:25.273Z,214.40
2023-03-26T15:03:25.238Z,215.75
2023-03-26T15:04:25.274Z,216.04
2023-03-26T15:05:25.341Z,216.43
2023-03-26T15:06:25.362Z,215.96
2023-03-26T15:07:25.409Z,218.00
2023-03-26T15:08:33.858Z,218.99
2023-03-26T15:09:26.412Z,219.09
2023-03-26T15:14:25.399Z,223.76
2023-03-26T15:17:25.505Z,225.61
2023-03-26T15:22:26.188Z,225.39
2023-03-26T15:23:25.543Z,225.47
2023-03-26T15:24:25.598Z,218.32
2023-03-26T15:25:25.623Z,217.47
2023-03-26T15:26:25.701Z,221.65
2023-03-26T15:27:25.800Z,226.50
2023-03-26T15:34:26.080Z,223.45
2023-03-26T15:42:26.494Z,229.05
2023-03-26T15:43:26.580Z,229.21
2023-03-26T15:44:26.586Z,220.85
2023-03-26T15:45:26.656Z,217.97
2023-03-26T15:46:26.721Z,219.09
2023-03-26T15:47:26.791Z,223.64
2023-03-26T15:48:26.785Z,226.68
2023-03-26T15:49:26.839Z,229.96
2023-03-26T15:50:26.953Z,231.84
2023-03-26T15:51:26.978Z,231.77
2023-03-26T15:52:27.036Z,229.36
2023-03-26T15:53:27.069Z,231.95
2023-03-26T15:54:27.357Z,234.72
2023-03-26T15:55:27.148Z,233.94
2023-03-26T15:56:27.243Z,233.99
2023-03-26T15:57:27.308Z,233.01
2023-03-26T15:58:27.354Z,232.84
2023-03-26T15:59:27.380Z,234.99
2023-03-26T16:00:27.438Z,236.30
2023-03-26T16:01:27.581Z,237.10
2023-03-26T16:10:27.871Z,224.06
2023-03-26T16:11:27.898Z,223.23
2023-03-26T16:12:27.945Z,225.97
2023-03-26T16:13:27.995Z,227.79
2023-03-26T16:14:27.988Z,231.31
2023-03-26T16:15:28.044Z,233.83
2023-03-26T16:16:28.093Z,235.32
2023-03-26T16:17:28.137Z,237.47
2023-03-26T16:18:28.174Z,240.40
2023-03-26T16:19:28.189Z,242.12
2023-03-26T16:20:28.260Z,241.96
2023-03-26T16:21:31.410Z,243.62
2023-03-26T16:23:28.290Z,244.16
2023-03-26T16:29:28.220Z,249.21
2023-03-26T16:30:28.199Z,249.93
2023-03-26T16:31:38.849Z,249.66
2023-03-26T16:32:29.238Z,249.55
2023-03-26T16:36:28.186Z,243.75
2023-03-26T16:37:28.178Z,244.65
2023-03-26T16:40:28.212Z,239.61
2023-03-26T16:41:28.220Z,240.98
2023-03-26T16:42:28.417Z,241.74
2023-03-26T16:43:28.329Z,244.00
2023-03-26T16:44:28.361Z,244.66
2023-03-26T16:45:28.410Z,241.69
2023-03-26T16:46:28.584Z,238.37
2023-03-26T16:47:28.574Z,237.95
2023-03-26T16:48:28.580Z,236.84
2023-03-26T16:49:28.614Z,233.71
2023-03-26T16:50:28.666Z,232.22
2023-03-26T16:51:28.778Z,231.96
2023-03-26T16:52:28.780Z,233.39
2023-03-26T16:53:28.831Z,232.98
2023-03-26T16:54:28.872Z,235.36
2023-03-26T16:55:28.935Z,239.00
2023-03-26T16:56:29.014Z,237.01
2023-03-26T16:57:29.031Z,239.63
2023-03-26T16:58:29.074Z,238.13
2023-03-26T16:59:29.134Z,240.89
2023-03-26T17:00:29.202Z,241.35
2023-03-26T17:01:29.236Z,242.91
2023-03-26T17:02:29.367Z,243.24
2023-03-26T17:03:29.423Z,245.31
2023-03-26T17:04:29.431Z,244.12
2023-03-26T17:05:29.481Z,242.38
2023-03-26T17:06:29.538Z,241.31
2023-03-26T17:07:29.602Z,244.40
2023-03-26T17:08:35.661Z,243.59
2023-03-26T17:09:30.652Z,243.61
2023-03-26T17:12:29.622Z,245.98
2023-03-26T17:14:29.665Z,248.74
2023-03-26T17:17:29.664Z,249.72
2023-03-26T17:18:29.758Z,246.00
2023-03-26T17:19:29.773Z,246.56
2023-03-26T17:20:29.750Z,246.42
2023-03-26T17:21:29.847Z,242.76
2023-03-26T17:22:30.811Z,242.83
2023-03-26T17:26:29.776Z,242.58
2023-03-26T17:27:29.765Z,243.34
2023-03-26T17:28:29.798Z,239.00
2023-03-26T17:48:30.102Z,250.00